createdAt,value
2023-01-05T00:01:41.724Z,9.26
2023-01-05T00:04:11.723Z,9.29
2023-01-05T00:06:39.769Z,9.32
2023-01-05T00:09:10.361Z,9.27
2023-01-05T00:11:56.421Z,9.18
2023-01-05T00:14:45.386Z,9.21
2023-01-05T00:17:34.332Z,9.16
2023-01-05T00:20:20.552Z,9.23
2023-01-05T00:22:53.566Z,9.04
2023-01-05T00:25:23.703Z,8.89
2023-01-05T00:27:53.642Z,8.90
2023-01-05T00:30:23.716Z,8.91
2023-01-05T00:32:51.380Z,8.89
2023-01-05T00:35:19.288Z,8.86
2023-01-05T00:37:46.708Z,8.92
2023-01-05T00:40:17.331Z,8.87
2023-01-05T00:42:45.289Z,8.92
2023-01-05T00:45:15.266Z,8.82
2023-01-05T00:47:43.150Z,8.91
2023-01-05T00:50:14.515Z,8.86
2023-01-05T00:52:42.422Z,8.87
2023-01-05T00:55:10.656Z,8.99
2023-01-05T00:57:38.188Z,8.82
2023-01-05T01:00:07.980Z,8.78
2023-01-05T01:02:35.708Z,8.82
2023-01-05T01:05:03.029Z,8.95
2023-01-05T01:07:31.292Z,8.93
2023-01-05T01:09:58.655Z,9.00
2023-01-05T01:12:26.086Z,8.92
2023-01-05T01:14:53.568Z,8.93
2023-01-05T01:17:20.948Z,9.12
2023-01-05T01:19:48.363Z,9.06
2023-01-05T01:22:15.851Z,8.86
2023-01-05T01:24:43.243Z,8.72
2023-01-05T01:27:12.742Z,8.76
2023-01-05T01:29:40.331Z,8.69
2023-01-05T01:32:08.251Z,8.78
2023-01-05T01:34:35.874Z,8.71
2023-01-05T01:37:03.311Z,8.70
2023-01-05T01:39:35.951Z,8.73
2023-01-05T01:42:14.139Z,8.79
2023-01-05T01:45:05.782Z,8.81
2023-01-05T01:47:43.980Z,9.00
2023-01-05T01:50:19.073Z,8.96
2023-01-05T01:52:50.919Z,8.79
2023-01-05T01:55:19.570Z,8.83
2023-01-05T01:57:48.770Z,8.62
2023-01-05T02:00:18.786Z,8.69
2023-01-05T02:02:48.814Z,8.55
2023-01-05T02:05:21.842Z,8.51
2023-01-05T02:07:49.542Z,8.73
2023-01-05T02:10:22.553Z,8.73
2023-01-05T02:13:09.172Z,8.66
2023-01-05T02:15:59.563Z,8.65
2023-01-05T02:18:39.551Z,8.72
2023-01-05T02:21:16.603Z,8.61
2023-01-05T02:24:17.796Z,8.51
2023-01-05T02:27:00.303Z,8.51
2023-01-05T02:30:08.486Z,8.49
2023-01-05T02:32:59.278Z,8.47
2023-01-05T02:36:03.438Z,8.43
2023-01-05T02:39:15.258Z,8.49
2023-01-05T02:42:08.252Z,8.52
2023-01-05T02:44:36.848Z,8.48
2023-01-05T02:47:28.162Z,8.41
2023-01-05T02:50:05.067Z,8.31
2023-01-05T02:52:42.882Z,8.29
2023-01-05T02:55:16.264Z,8.31
2023-01-05T02:57:56.039Z,8.38
2023-01-05T03:00:32.715Z,8.26
2023-01-05T03:03:11.749Z,8.34
2023-01-05T03:05:44.397Z,8.28
2023-01-05T03:08:26.362Z,8.34
2023-01-05T03:11:21.242Z,8.18
2023-01-05T03:13:59.042Z,8.27
2023-01-05T03:16:33.929Z,8.24
2023-01-05T03:19:23.517Z,8.23
2023-01-05T03:22:11.564Z,8.21
2023-01-05T03:25:03.519Z,8.13
2023-01-05T03:27:54.395Z,8.19
2023-01-05T03:30:49.338Z,8.13
2023-01-05T03:33:48.609Z,8.10
2023-01-05T03:36:20.274Z,8.13
2023-01-05T03:38:49.234Z,8.14
2023-01-05T03:41:19.912Z,8.21
2023-01-05T03:43:48.561Z,8.17
2023-01-05T03:46:22.184Z,8.16
2023-01-05T03:48:50.795Z,8.08
2023-01-05T03:51:20.588Z,8.06
2023-01-05T03:53:48.107Z,7.88
2023-01-05T03:56:15.598Z,7.92
2023-01-05T03:58:43.349Z,7.82
2023-01-05T04:01:11.195Z,7.93
2023-01-05T04:03:40.788Z,8.01
2023-01-05T04:06:09.049Z,8.02
2023-01-05T04:08:38.299Z,8.07
2023-01-05T04:11:17.989Z,8.19
2023-01-05T04:13:53.579Z,8.30
2023-01-05T04:16:22.053Z,8.33
2023-01-05T04:18:51.566Z,8.32
2023-01-05T04:21:21.605Z,8.30
2023-01-05T04:23:50.741Z,8.33
2023-01-05T04:26:18.263Z,8.29
2023-01-05T04:28:49.302Z,8.35
2023-01-05T04:31:19.107Z,8.32
2023-01-05T04:33:46.631Z,8.22
2023-01-05T04:36:18.421Z,8.34
2023-01-05T04:38:45.850Z,8.21
2023-01-05T04:41:14.073Z,8.20
2023-01-05T04:43:46.540Z,8.11
2023-01-05T04:46:15.194Z,8.11
2023-01-05T04:48:45.865Z,8.27
2023-01-05T04:51:14.755Z,8.23
2023-01-05T04:53:42.620Z,8.32
2023-01-05T04:56:33.181Z,8.29
2023-01-05T04:59:01.981Z,8.28
2023-01-05T05:01:30.214Z,8.25
2023-01-05T05:04:00.100Z,8.29
2023-01-05T05:06:27.697Z,8.27
2023-01-05T05:08:56.651Z,8.23
2023-01-05T05:11:26.271Z,8.32
2023-01-05T05:13:53.732Z,8.25
2023-01-05T05:16:21.278Z,8.22
2023-01-05T05:18:50.112Z,8.28
2023-01-05T05:21:22.395Z,8.27
2023-01-05T05:23:49.839Z,8.22
2023-01-05T05:26:17.492Z,8.31
2023-01-05T05:28:46.946Z,8.31
2023-01-05T05:31:14.469Z,8.38
2023-01-05T05:33:41.905Z,8.48
2023-01-05T05:36:09.832Z,8.37
2023-01-05T05:38:37.290Z,8.45
2023-01-05T05:41:04.879Z,8.46
2023-01-05T05:43:32.312Z,8.48
2023-01-05T05:45:59.707Z,8.40
2023-01-05T05:48:27.324Z,8.40
2023-01-05T05:50:54.807Z,8.43
2023-01-05T05:53:22.137Z,8.44
2023-01-05T05:55:50.819Z,8.46
2023-01-05T05:58:19.065Z,8.46
2023-01-05T06:00:47.367Z,8.49
2023-01-05T06:03:14.852Z,8.59
2023-01-05T06:05:42.412Z,8.49
2023-01-05T06:08:09.953Z,8.63
2023-01-05T06:10:37.587Z,8.48
2023-01-05T06:13:05.483Z,8.45
2023-01-05T06:15:32.862Z,8.46
2023-01-05T06:18:00.256Z,8.47
2023-01-05T06:20:27.743Z,8.39
2023-01-05T06:22:55.191Z,8.38
2023-01-05T06:25:22.628Z,8.54
2023-01-05T06:27:50.102Z,8.53
2023-01-05T06:30:17.612Z,8.59
2023-01-05T06:32:45.026Z,8.45
2023-01-05T06:35:13.167Z,8.39
2023-01-05T06:37:40.682Z,8.41
2023-01-05T06:40:09.813Z,8.53
2023-01-05T06:42:38.141Z,8.37
2023-01-05T06:45:06.617Z,8.40
2023-01-05T06:47:33.983Z,8.32
2023-01-05T06:50:01.391Z,8.35
2023-01-05T06:52:29.042Z,8.41
2023-01-05T06:54:56.462Z,8.30
2023-01-05T06:57:24.900Z,8.35
2023-01-05T06:59:52.292Z,8.40
2023-01-05T07:02:19.715Z,8.51
2023-01-05T07:04:47.177Z,8.51
2023-01-05T07:07:15.557Z,8.61
2023-01-05T07:09:44.986Z,8.65
2023-01-05T07:12:12.363Z,8.59
2023-01-05T07:14:39.799Z,8.57
2023-01-05T07:17:08.114Z,8.63
2023-01-05T07:19:35.673Z,8.53
2023-01-05T07:22:03.080Z,8.52
2023-01-05T07:24:30.513Z,8.60
2023-01-05T07:27:07.634Z,8.55
2023-01-05T07:29:37.338Z,8.50
2023-01-05T07:32:05.185Z,8.54
2023-01-05T07:34:32.732Z,8.50
2023-01-05T07:37:00.125Z,8.57
2023-01-05T07:39:27.537Z,8.47
2023-01-05T07:41:54.888Z,8.44
2023-01-05T07:44:25.756Z,8.54
2023-01-05T07:46:53.776Z,8.60
2023-01-05T07:49:21.161Z,8.66
2023-01-05T07:51:48.457Z,8.67
2023-01-05T07:54:15.964Z,8.63
2023-01-05T07:56:43.412Z,8.57
2023-01-05T07:59:10.762Z,8.64
2023-01-05T08:01:38.120Z,8.71
2023-01-05T08:04:05.608Z,8.77
2023-01-05T08:06:34.212Z,8.94
2023-01-05T08:09:21.540Z,8.89
2023-01-05T08:11:48.875Z,8.77
2023-01-05T08:14:16.231Z,8.75
2023-01-05T08:16:43.648Z,8.70
2023-01-05T08:19:11.830Z,8.71
2023-01-05T08:21:39.443Z,8.72
2023-01-05T08:24:07.324Z,8.77
2023-01-05T08:26:34.722Z,8.76
2023-01-05T08:29:02.144Z,8.57
2023-01-05T08:31:34.029Z,8.72
2023-01-05T08:34:02.492Z,8.73
2023-01-05T08:36:31.382Z,8.78
2023-01-05T08:39:01.216Z,8.92
2023-01-05T08:41:31.892Z,8.88
2023-01-05T08:44:00.997Z,9.02
2023-01-05T08:46:35.004Z,9.02
2023-01-05T08:49:05.223Z,9.02
2023-01-05T08:51:33.339Z,9.00
2023-01-05T08:54:01.045Z,8.89
2023-01-05T08:56:31.811Z,8.92
2023-01-05T08:59:03.968Z,8.88
2023-01-05T09:01:31.564Z,8.87
2023-01-05T09:03:59.036Z,8.96
2023-01-05T09:06:26.476Z,8.79
2023-01-05T09:08:54.975Z,8.90
2023-01-05T09:11:25.451Z,9.01
2023-01-05T09:13:58.845Z,9.03
2023-01-05T09:19:17.078Z,9.04
2023-01-05T09:21:44.697Z,9.17
2023-01-05T09:24:13.185Z,9.14
2023-01-05T09:26:41.885Z,9.16
2023-01-05T09:29:10.473Z,9.24
2023-01-05T09:31:38.547Z,9.15
2023-01-05T09:34:06.111Z,9.21
2023-01-05T09:36:33.489Z,9.21
2023-01-05T09:39:00.909Z,9.19
2023-01-05T09:41:38.514Z,9.20
2023-01-05T09:44:14.569Z,9.28
2023-01-05T09:46:46.899Z,9.30
2023-01-05T09:49:15.705Z,9.27
2023-01-05T09:51:43.864Z,9.21
2023-01-05T09:54:17.630Z,9.26
2023-01-05T09:59:42.740Z,9.52
2023-01-05T10:02:17.353Z,9.56
2023-01-05T10:04:46.839Z,9.64
2023-01-05T10:07:22.220Z,9.58
2023-01-05T10:09:51.171Z,9.63
2023-01-05T10:12:44.047Z,9.69
2023-01-05T10:15:18.505Z,9.81
2023-01-05T10:17:47.502Z,9.96
2023-01-05T10:20:20.859Z,10.01
2023-01-05T10:23:27.365Z,10.01
2023-01-05T10:26:16.126Z,9.99
2023-01-05T10:28:58.766Z,9.91
2023-01-05T10:31:29.212Z,9.98
2023-01-05T10:34:17.397Z,9.98
2023-01-05T10:37:09.271Z,9.97
2023-01-05T10:40:12.278Z,9.93
2023-01-05T10:42:42.418Z,9.88
2023-01-05T10:45:15.749Z,9.90
2023-01-05T10:47:45.290Z,9.82
2023-01-05T10:50:42.392Z,9.92
2023-01-05T10:53:24.424Z,10.04
2023-01-05T10:56:00.983Z,10.12
2023-01-05T10:58:30.775Z,10.26
2023-01-05T11:01:03.005Z,10.26
2023-01-05T11:04:23.063Z,10.41
2023-01-05T11:06:30.486Z,10.29
2023-01-05T11:09:12.780Z,10.45
2023-01-05T11:11:42.766Z,10.27
2023-01-05T11:14:16.521Z,10.34
2023-01-05T11:16:53.598Z,10.22
2023-01-05T11:19:34.144Z,10.20
2023-01-05T11:22:02.479Z,10.13
2023-01-05T11:24:35.779Z,10.10
2023-01-05T11:27:25.346Z,10.16
2023-01-05T11:30:16.070Z,10.28
2023-01-05T11:32:44.845Z,10.31
2023-01-05T11:35:31.016Z,10.42
2023-01-05T11:37:58.473Z,10.42
2023-01-05T11:40:30.805Z,10.32
2023-01-05T11:42:59.906Z,10.29
2023-01-05T11:45:37.882Z,10.29
2023-01-05T11:48:08.801Z,10.42
2023-01-05T11:50:49.141Z,10.30
2023-01-05T11:53:31.864Z,10.30
2023-01-05T11:56:03.963Z,10.21
2023-01-05T11:58:43.310Z,10.44
2023-01-05T12:01:16.708Z,10.77
2023-01-05T12:03:58.551Z,11.05
2023-01-05T12:06:47.748Z,11.53
2023-01-05T12:09:35.209Z,11.95
2023-01-05T12:12:18.059Z,11.61
2023-01-05T12:15:06.921Z,11.61
2023-01-05T12:17:48.988Z,11.33
2023-01-05T12:20:34.675Z,11.63
2023-01-05T12:23:32.403Z,11.79
2023-01-05T12:26:21.543Z,11.86
2023-01-05T12:35:31.257Z,11.86
2023-01-05T12:38:23.839Z,11.67
2023-01-05T12:41:09.633Z,11.93
2023-01-05T12:43:45.786Z,12.25
2023-01-05T12:46:31.629Z,12.53
2023-01-05T12:49:03.512Z,12.41
2023-01-05T12:51:34.372Z,11.98
2023-01-05T12:54:10.579Z,11.65
2023-01-05T12:56:45.125Z,11.80
2023-01-05T12:59:30.636Z,11.97
2023-01-05T13:02:20.689Z,11.77
2023-01-05T13:04:57.987Z,11.93
2023-01-05T13:07:29.261Z,11.88
2023-01-05T13:10:03.258Z,11.88
2023-01-05T13:12:34.242Z,11.91
2023-01-05T13:15:18.455Z,11.97
2023-01-05T13:17:49.808Z,11.95
2023-01-05T13:20:26.072Z,11.86
2023-01-05T13:23:01.335Z,11.93
2023-01-05T13:25:35.864Z,11.63
2023-01-05T13:30:43.035Z,11.46
2023-01-05T13:33:16.586Z,11.46
2023-01-05T13:36:19.432Z,11.38
2023-01-05T13:38:55.896Z,11.52
2023-01-05T13:41:35.350Z,11.45
2023-01-05T13:44:30.737Z,11.30
2023-01-05T13:47:27.094Z,11.30
2023-01-05T13:50:32.312Z,11.31
2023-01-05T13:53:18.326Z,11.36
2023-01-05T13:55:57.035Z,11.46
2023-01-05T13:58:43.466Z,11.45
2023-01-05T14:01:19.166Z,11.44
2023-01-05T14:03:51.464Z,11.46
2023-01-05T14:06:23.454Z,11.52
2023-01-05T14:08:53.729Z,11.47
2023-01-05T14:11:23.785Z,11.45
2023-01-05T14:14:05.756Z,11.57
2023-01-05T14:16:37.478Z,11.49
2023-01-05T14:19:26.804Z,11.50
2023-01-05T14:21:56.431Z,11.44
2023-01-05T14:27:09.201Z,11.44
2023-01-05T14:29:59.515Z,11.43
2023-01-05T14:32:29.960Z,11.40
2023-01-05T14:35:05.751Z,11.27
2023-01-05T14:37:38.547Z,11.29
2023-01-05T14:40:20.486Z,11.21
2023-01-05T14:42:49.518Z,11.11
2023-01-05T14:45:26.484Z,11.04
2023-01-05T14:47:59.982Z,11.01
2023-01-05T14:50:36.574Z,10.96
2023-01-05T14:53:06.357Z,10.95
2023-01-05T14:56:00.607Z,10.81
2023-01-05T14:58:33.565Z,10.76
2023-01-05T15:01:05.282Z,10.70
2023-01-05T15:03:33.546Z,10.62
2023-01-05T15:06:10.207Z,10.53
2023-01-05T15:08:49.588Z,10.43
2023-01-05T15:11:28.522Z,10.38
2023-01-05T15:14:31.112Z,10.26
2023-01-05T15:17:10.668Z,10.28
2023-01-05T15:19:56.981Z,10.32
2023-01-05T15:22:46.146Z,10.23
2023-01-05T15:25:58.850Z,10.10
2023-01-05T15:31:40.972Z,9.90
2023-01-05T15:34:38.590Z,9.86
2023-01-05T15:37:33.808Z,9.81
2023-01-05T15:40:04.362Z,9.76
2023-01-05T15:42:31.869Z,9.74
2023-01-05T15:44:59.510Z,9.68
2023-01-05T15:47:29.510Z,9.69
2023-01-05T15:49:59.864Z,9.62
2023-01-05T15:52:36.686Z,9.56
2023-01-05T15:55:15.776Z,9.53
2023-01-05T15:58:00.537Z,9.51
2023-01-05T16:00:33.746Z,9.46
2023-01-05T16:03:02.539Z,9.46
2023-01-05T16:05:35.733Z,9.53
2023-01-05T16:08:11.588Z,9.48
2023-01-05T16:10:59.721Z,9.39
2023-01-05T16:13:39.413Z,9.33
2023-01-05T16:16:50.668Z,9.34
2023-01-05T16:19:32.834Z,9.33
2023-01-05T16:22:07.112Z,9.33
2023-01-05T16:25:06.946Z,9.33
2023-01-05T16:27:39.826Z,9.31
2023-01-05T16:30:40.617Z,9.24
2023-01-05T16:33:15.072Z,9.23
2023-01-05T16:35:43.843Z,9.22
2023-01-05T16:38:16.637Z,9.18
2023-01-05T16:40:47.055Z,9.18
2023-01-05T16:43:42.566Z,9.14
2023-01-05T16:46:20.770Z,9.14
2023-01-05T16:48:52.856Z,9.14
2023-01-05T16:51:36.186Z,9.15
2023-01-05T16:54:14.470Z,9.11
2023-01-05T16:56:58.123Z,9.13
2023-01-05T16:59:47.788Z,9.08
2023-01-05T17:02:45.232Z,9.06
2023-01-05T17:05:20.607Z,9.05
2023-01-05T17:07:53.823Z,9.02
2023-01-05T17:10:24.461Z,9.00
2023-01-05T17:13:07.937Z,9.02
2023-01-05T17:15:36.239Z,9.04
2023-01-05T17:20:51.992Z,8.96
2023-01-05T17:23:25.396Z,8.96
2023-01-05T17:25:54.052Z,8.96
2023-01-05T17:28:24.779Z,8.95
2023-01-05T17:30:52.878Z,8.91
2023-01-05T17:33:20.518Z,8.93
2023-01-05T17:38:21.062Z,8.86
2023-01-05T17:40:48.862Z,8.91
2023-01-05T17:43:16.515Z,8.91
2023-01-05T17:45:44.595Z,8.86
2023-01-05T17:50:44.869Z,8.87
2023-01-05T17:53:12.480Z,8.81
2023-01-05T17:55:41.246Z,8.79
2023-01-05T17:58:11.231Z,8.78
2023-01-05T18:03:21.599Z,8.87
2023-01-05T18:05:53.981Z,8.82
2023-01-05T18:08:22.038Z,8.76
2023-01-05T18:10:49.430Z,8.67
2023-01-05T18:13:19.699Z,8.68
2023-01-05T18:15:52.735Z,8.70
2023-01-05T18:18:21.394Z,8.66
2023-01-05T18:20:52.516Z,8.69
2023-01-05T18:23:20.620Z,8.73
2023-01-05T18:25:50.779Z,8.70
2023-01-05T18:28:18.324Z,8.69
2023-01-05T18:30:45.991Z,8.70
2023-01-05T18:33:13.500Z,8.77
2023-01-05T18:35:43.801Z,8.65
2023-01-05T18:38:11.779Z,8.70
2023-01-05T18:40:39.229Z,8.76
2023-01-05T18:43:06.970Z,8.90
2023-01-05T18:45:41.510Z,8.78
2023-01-05T18:48:09.712Z,8.82
2023-01-05T18:50:43.046Z,8.74
2023-01-05T18:53:10.700Z,8.68
2023-01-05T18:55:41.954Z,8.71
2023-01-05T18:58:10.346Z,8.72
2023-01-05T19:00:42.509Z,8.79
2023-01-05T19:03:10.679Z,8.87
2023-01-05T19:05:40.905Z,8.85
2023-01-05T19:08:09.283Z,8.79
2023-01-05T19:10:37.567Z,8.78
2023-01-05T19:13:05.591Z,8.73
2023-01-05T19:15:34.863Z,8.70
2023-01-05T19:18:02.757Z,8.67
2023-01-05T19:20:31.746Z,8.68
2023-01-05T19:23:00.486Z,8.67
2023-01-05T19:25:28.372Z,8.65
2023-01-05T19:27:56.007Z,8.62
2023-01-05T19:30:24.896Z,8.60
2023-01-05T19:32:52.562Z,8.68
2023-01-05T19:35:20.164Z,8.73
2023-01-05T19:37:47.555Z,8.59
2023-01-05T19:40:15.016Z,8.76
2023-01-05T19:42:42.482Z,8.63
2023-01-05T19:45:10.216Z,8.61
2023-01-05T19:47:40.740Z,8.66
2023-01-05T19:50:09.928Z,8.69
2023-01-05T19:52:38.243Z,8.77
2023-01-05T19:55:06.682Z,8.80
2023-01-05T19:57:34.079Z,8.81
2023-01-05T20:00:01.437Z,8.72
2023-01-05T20:02:42.032Z,8.73
2023-01-05T20:05:09.842Z,8.69
2023-01-05T20:07:39.359Z,8.73
2023-01-05T20:10:07.856Z,8.61
2023-01-05T20:12:35.249Z,8.61
2023-01-05T20:15:02.571Z,8.65
2023-01-05T20:17:32.066Z,8.85
2023-01-05T20:19:59.472Z,8.88
2023-01-05T20:22:26.988Z,8.79
2023-01-05T20:24:54.388Z,8.69
2023-01-05T20:27:21.949Z,8.71
2023-01-05T20:29:49.302Z,8.59
2023-01-05T20:32:19.958Z,8.60
2023-01-05T20:34:52.551Z,8.53
2023-01-05T20:37:20.681Z,8.49
2023-01-05T20:39:48.015Z,8.50
2023-01-05T20:42:15.689Z,8.69
2023-01-05T20:44:46.343Z,8.67
2023-01-05T20:47:15.313Z,8.59
2023-01-05T20:49:45.242Z,8.53
2023-01-05T20:52:14.826Z,8.57
2023-01-05T20:54:42.468Z,8.69
2023-01-05T20:57:09.917Z,8.68
2023-01-05T20:59:41.494Z,8.63
2023-01-05T21:02:22.586Z,8.62
2023-01-05T21:04:52.921Z,8.56
2023-01-05T21:07:20.547Z,8.54
2023-01-05T21:09:49.957Z,8.53
2023-01-05T21:12:17.942Z,8.49
2023-01-05T21:14:45.357Z,8.47
2023-01-05T21:17:12.753Z,8.48
2023-01-05T21:19:40.107Z,8.47
2023-01-05T21:22:07.820Z,8.46
2023-01-05T21:24:35.900Z,8.43
2023-01-05T21:27:03.356Z,8.43
2023-01-05T21:29:30.757Z,8.45
2023-01-05T21:31:58.103Z,8.44
2023-01-05T21:34:25.581Z,8.40
2023-01-05T21:36:53.384Z,8.40
2023-01-05T21:39:23.154Z,8.41
2023-01-05T21:42:10.810Z,8.41
2023-01-05T21:44:39.635Z,8.43
2023-01-05T21:47:07.632Z,8.42
2023-01-05T21:49:36.096Z,8.42
2023-01-05T21:52:22.887Z,8.44
2023-01-05T21:55:08.890Z,8.41
2023-01-05T21:57:36.324Z,8.40
2023-01-05T22:00:04.862Z,8.47
2023-01-05T22:02:32.751Z,8.50
2023-01-05T22:05:00.165Z,8.47
2023-01-05T22:07:27.713Z,8.44
2023-01-05T22:09:55.017Z,8.48
2023-01-05T22:12:22.356Z,8.51
2023-01-05T22:14:50.173Z,8.51
2023-01-05T22:17:17.567Z,8.51
2023-01-05T22:19:44.893Z,8.49
2023-01-05T22:22:12.341Z,8.52
2023-01-05T22:24:39.817Z,8.57
2023-01-05T22:27:07.219Z,8.72
2023-01-05T22:29:34.517Z,8.79
2023-01-05T22:32:03.039Z,8.68
2023-01-05T22:34:31.062Z,8.64
2023-01-05T22:36:58.952Z,8.69
2023-01-05T22:39:26.280Z,8.53
2023-01-05T22:41:53.645Z,8.51
2023-01-05T22:44:21.215Z,8.50
2023-01-05T22:46:48.620Z,8.44
2023-01-05T22:49:16.603Z,8.35
2023-01-05T22:51:44.871Z,8.37
2023-01-05T22:54:12.642Z,8.35
2023-01-05T22:56:40.234Z,8.28
2023-01-05T22:59:08.213Z,8.30
2023-01-05T23:01:38.525Z,8.31
2023-01-05T23:04:07.265Z,8.25
2023-01-05T23:06:35.226Z,8.28
2023-01-05T23:09:05.223Z,8.34
2023-01-05T23:11:35.431Z,8.30
2023-01-05T23:14:05.485Z,8.24
2023-01-05T23:16:34.132Z,8.13
2023-01-05T23:19:02.933Z,8.09
2023-01-05T23:21:30.599Z,8.19
2023-01-05T23:23:58.577Z,8.29
2023-01-05T23:26:27.533Z,8.23
2023-01-05T23:28:55.388Z,8.11
2023-01-05T23:31:23.448Z,8.20
2023-01-05T23:33:51.466Z,8.17
2023-01-05T23:36:20.051Z,8.14
2023-01-05T23:38:47.840Z,8.14
2023-01-05T23:41:16.904Z,8.24
2023-01-05T23:43:46.028Z,8.30
2023-01-05T23:46:20.094Z,8.27
2023-01-05T23:48:49.263Z,8.14
2023-01-05T23:51:18.254Z,8.20
2023-01-05T23:53:48.096Z,8.16
2023-01-05T23:56:18.753Z,8.08
2023-01-05T23:58:46.597Z,8.14
